This is the latest recevied weather packets stored in our database for station/object VK5GR-12. If no packets are shown the sender has not sent any weather packets the latest 10 day(s).
| Time | Temp. | Humidity | Pressure | Rain* | Wind** | Luminosity | Snow |
|---|---|---|---|---|---|---|---|
| 1788089528 | 12.78° C | 81% | 1031.7 hPa | 0 mm | - | 0 W/m² | - |
| 1788088627 | 12.78° C | 79% | 1031.8 hPa | 0 mm | - | 0 W/m² | - |
| 1788087725 | 13.33° C | 76% | 1031.7 hPa | 0 mm | - | 0 W/m² | - |
| 1788086823 | 13.89° C | 73% | 1031.6 hPa | 0 mm | - | 0 W/m² | - |
| 1788085920 | 13.89° C | 71% | 1031.5 hPa | 0 mm | - | 0 W/m² | - |
| 1788085015 | 13.89° C | 71% | 1031.3 hPa | 0 mm | - | 0 W/m² | - |
| 1788084110 | 13.89° C | 69% | 1031.3 hPa | 0 mm | - | 0 W/m² | - |
| 1788083208 | 13.89° C | 69% | 1031.3 hPa | 0 mm | - | 0 W/m² | - |
| 1788082306 | 14.44° C | 68% | 1031.1 hPa | 0 mm | - | 0 W/m² | - |
| 1788081403 | 14.44° C | 75% | 1031.1 hPa | 0 mm | - | 0 W/m² | - |
| 1788080499 | 14.44° C | 74% | 1030.9 hPa | 0 mm | - | 0 W/m² | - |
| 1788079595 | 15° C | 72% | 1031.3 hPa | 0 mm | - | 0 W/m² | - |
| 1788078692 | 15.56° C | 69% | 1031.1 hPa | 0 mm | - | 2 W/m² | - |
| 1788077790 | 17.22° C | 66% | 1031.2 hPa | 0 mm | - | 8 W/m² | - |
| 1788076885 | 18.89° C | 58% | 1031 hPa | 0 mm | - | 17 W/m² | - |
| 1788075981 | 20.56° C | 53% | 1030.9 hPa | 0 mm | - | 34 W/m² | - |
| 1788075080 | 20.56° C | 52% | 1031 hPa | 0 mm | - | 56 W/m² | - |
| 1788074176 | 20.56° C | 51% | 1031 hPa | 0 mm | - | 90 W/m² | - |
| 1788073276 | 21.11° C | 51% | 1031.2 hPa | 0 mm | - | 128 W/m² | - |
| 1788072373 | 21.67° C | 50% | 1031.1 hPa | 0 mm | - | 162 W/m² | - |
| 1788071468 | 21.11° C | 50% | 1031.2 hPa | 0 mm | - | 199 W/m² | - |
| 1788070563 | 20.56° C | 52% | 1031.5 hPa | 0 mm | - | 238 W/m² | - |
| 1788069658 | 20.56° C | 51% | 1031.6 hPa | 0 mm | - | 273 W/m² | - |
| 1788068756 | 20.56° C | 52% | 1031.7 hPa | 0 mm | - | 311 W/m² | - |
| 1788067852 | 20.56° C | 52% | 1031.8 hPa | 0 mm | - | 347 W/m² | - |
* Rain latest hour (hover to see other rain measurements)
** Current wind speed in m/s (hover to see current wind gust speed)